createdAt,value
2017-02-11T00:00:47.822Z,22.2
2017-02-11T00:01:47.358Z,22.26
2017-02-11T00:02:47.300Z,22.23
2017-02-11T00:03:47.625Z,22.23
2017-02-11T00:04:47.169Z,22.28
2017-02-11T00:05:47.500Z,22.29
2017-02-11T00:06:47.435Z,22.32
2017-02-11T00:07:47.405Z,22.29
2017-02-11T00:08:47.306Z,22.26
2017-02-11T00:09:47.245Z,22.26
2017-02-11T00:10:47.181Z,22.23
2017-02-11T00:11:47.115Z,22.28
2017-02-11T00:12:47.052Z,22.29
2017-02-11T00:13:46.985Z,22.23
2017-02-11T00:14:46.921Z,22.25
2017-02-11T00:15:46.891Z,22.2
2017-02-11T00:16:46.414Z,22.26
2017-02-11T00:17:46.739Z,22.28
2017-02-11T00:18:46.668Z,22.3
2017-02-11T00:19:46.899Z,22.28
2017-02-11T00:20:46.873Z,22.22
2017-02-11T00:21:46.085Z,22.29
2017-02-11T00:22:46.413Z,22.22
2017-02-11T00:23:46.652Z,22.22
2017-02-11T00:24:46.289Z,22.26
2017-02-11T00:25:46.224Z,22.25
2017-02-11T00:26:46.165Z,22.32
2017-02-11T00:27:46.100Z,22.23
2017-02-11T00:28:46.032Z,22.22
2017-02-11T00:29:45.969Z,22.25
2017-02-11T00:30:46.488Z,22.26
2017-02-11T00:31:45.850Z,22.25
2017-02-11T00:32:45.778Z,22.26
2017-02-11T00:33:45.716Z,22.3
2017-02-11T00:34:45.648Z,22.25
2017-02-11T00:35:45.837Z,22.25
2017-02-11T00:36:45.521Z,22.33
2017-02-11T00:37:45.471Z,22.25
2017-02-11T00:38:45.392Z,22.26
2017-02-11T00:39:45.342Z,22.33
2017-02-11T00:40:45.388Z,22.38
2017-02-11T00:41:45.203Z,22.26
2017-02-11T00:42:45.142Z,22.29
2017-02-11T00:43:45.377Z,22.35
2017-02-11T00:44:45.011Z,22.23
2017-02-11T00:45:44.954Z,22.32
2017-02-11T00:46:44.893Z,22.28
2017-02-11T00:47:44.827Z,22.33
2017-02-11T00:48:45.047Z,22.32
2017-02-11T00:49:44.697Z,22.25
2017-02-11T00:50:44.931Z,22.28
2017-02-11T00:51:44.575Z,22.3
2017-02-11T00:52:44.502Z,22.36
2017-02-11T00:53:44.440Z,22.3
2017-02-11T00:54:44.374Z,22.35
2017-02-11T00:55:44.616Z,22.39
2017-02-11T00:56:44.251Z,22.35
2017-02-11T00:57:44.471Z,22.26
2017-02-11T00:58:44.123Z,22.35
2017-02-11T00:59:44.069Z,22.41
2017-02-11T01:01:16.079Z,22.35
2017-02-11T01:02:15.593Z,22.3
2017-02-11T01:03:15.922Z,22.35
2017-02-11T01:04:15.855Z,22.33
2017-02-11T01:05:15.835Z,22.33
2017-02-11T01:06:15.734Z,22.33
2017-02-11T01:07:15.665Z,22.36
2017-02-11T01:08:15.248Z,22.39
2017-02-11T01:09:15.155Z,22.43
2017-02-11T01:10:15.474Z,22.33
2017-02-11T01:11:15.666Z,22.35
2017-02-11T01:12:15.346Z,22.33
2017-02-11T01:13:15.508Z,22.35
2017-02-11T01:14:15.220Z,22.43
2017-02-11T01:15:15.155Z,22.41
2017-02-11T01:16:15.093Z,22.38
2017-02-11T01:17:15.027Z,22.36
2017-02-11T01:18:14.969Z,22.41
2017-02-11T01:19:14.902Z,22.35
2017-02-11T01:20:14.444Z,22.36
2017-02-11T01:21:14.391Z,22.35
2017-02-11T01:22:14.711Z,22.39
2017-02-11T01:23:14.646Z,22.35
2017-02-11T01:24:14.582Z,22.41
2017-02-11T01:25:14.542Z,22.36
2017-02-11T01:26:14.060Z,22.36
2017-02-11T01:27:14.394Z,22.38
2017-02-11T01:28:14.329Z,22.39
2017-02-11T01:29:14.264Z,22.36
2017-02-11T01:30:14.201Z,22.44
2017-02-11T01:31:14.138Z,22.36
2017-02-11T01:32:13.681Z,22.36
2017-02-11T01:33:14.007Z,22.36
2017-02-11T01:34:13.552Z,22.35
2017-02-11T01:35:13.885Z,22.39
2017-02-11T01:36:13.818Z,22.38
2017-02-11T01:37:13.754Z,22.38
2017-02-11T01:38:13.692Z,22.33
2017-02-11T01:39:13.625Z,22.39
2017-02-11T01:40:13.565Z,22.33
2017-02-11T01:41:13.497Z,22.35
2017-02-11T01:42:13.435Z,22.35
2017-02-11T01:43:13.371Z,22.36
2017-02-11T01:44:13.305Z,22.39
2017-02-11T01:45:13.244Z,22.35
2017-02-11T01:46:12.800Z,22.38
2017-02-11T01:47:13.117Z,22.36
2017-02-11T01:48:13.052Z,22.44
2017-02-11T01:49:12.991Z,22.38
2017-02-11T01:50:12.929Z,22.38
2017-02-11T01:51:12.471Z,22.39
2017-02-11T01:52:12.413Z,22.36
2017-02-11T01:53:12.735Z,22.41
2017-02-11T01:54:12.677Z,22.39
2017-02-11T01:55:12.615Z,22.33
2017-02-11T01:56:12.153Z,22.35
2017-02-11T01:57:12.486Z,22.41
2017-02-11T01:58:12.417Z,22.36
2017-02-11T01:59:12.361Z,22.39
2017-02-11T02:00:12.294Z,22.43
2017-02-11T02:01:12.226Z,22.38
2017-02-11T02:02:12.162Z,22.35
2017-02-11T02:03:12.100Z,22.36
2017-02-11T02:04:12.036Z,22.39
2017-02-11T02:05:11.977Z,22.39
2017-02-11T02:06:11.912Z,22.41
2017-02-11T02:07:11.847Z,22.41
2017-02-11T02:08:11.787Z,22.41
2017-02-11T02:09:11.719Z,22.43
2017-02-11T02:10:11.972Z,22.44
2017-02-11T02:11:11.593Z,22.41
2017-02-11T02:12:11.537Z,22.38
2017-02-11T02:13:11.469Z,22.43
2017-02-11T02:14:11.403Z,22.39
2017-02-11T02:15:11.639Z,22.43
2017-02-11T02:16:11.275Z,22.36
2017-02-11T02:17:11.245Z,22.39
2017-02-11T02:18:11.152Z,22.43
2017-02-11T02:19:11.083Z,22.41
2017-02-11T02:20:11.021Z,22.39
2017-02-11T02:21:10.564Z,22.41
2017-02-11T02:22:10.892Z,22.44
2017-02-11T02:23:10.831Z,22.43
2017-02-11T02:24:10.771Z,22.44
2017-02-11T02:25:10.704Z,22.41
2017-02-11T02:26:10.248Z,22.43
2017-02-11T02:27:10.184Z,22.35
2017-02-11T02:28:10.127Z,22.41
2017-02-11T02:29:10.450Z,22.44
2017-02-11T02:30:10.384Z,22.33
2017-02-11T02:31:10.325Z,22.39
2017-02-11T02:32:09.866Z,22.33
2017-02-11T02:33:10.195Z,22.45
2017-02-11T02:34:10.137Z,22.36
2017-02-11T02:35:09.675Z,22.36
2017-02-11T02:36:10.005Z,22.39
2017-02-11T02:37:09.939Z,22.47
2017-02-11T02:38:09.490Z,22.36
2017-02-11T02:39:09.813Z,22.38
2017-02-11T02:40:09.750Z,22.44
2017-02-11T02:41:09.687Z,22.36
2017-02-11T02:42:09.233Z,22.35
2017-02-11T02:43:09.558Z,22.39
2017-02-11T02:44:09.105Z,22.38
2017-02-11T02:45:09.432Z,22.39
2017-02-11T02:46:09.370Z,22.41
2017-02-11T02:47:09.304Z,22.36
2017-02-11T02:48:09.242Z,22.33
2017-02-11T02:49:09.185Z,22.39
2017-02-11T02:50:09.114Z,22.45
2017-02-11T02:51:09.055Z,22.44
2017-02-11T02:52:08.987Z,22.41
2017-02-11T02:53:08.929Z,22.44
2017-02-11T02:54:08.471Z,22.39
2017-02-11T02:55:08.404Z,22.41
2017-02-11T02:56:08.734Z,22.44
2017-02-11T02:57:08.670Z,22.39
2017-02-11T02:58:08.604Z,22.44
2017-02-11T02:59:08.546Z,22.41
2017-02-11T03:00:08.087Z,22.44
2017-02-11T03:01:08.416Z,22.38
2017-02-11T03:02:07.570Z,22.39
2017-02-11T03:03:08.289Z,22.39
2017-02-11T03:04:08.225Z,22.41
2017-02-11T03:05:08.161Z,22.41
2017-02-11T03:06:08.098Z,22.45
2017-02-11T03:07:08.039Z,22.43
2017-02-11T03:08:07.578Z,22.43
2017-02-11T03:09:07.907Z,22.47
2017-02-11T03:10:07.454Z,22.41
2017-02-11T03:11:07.781Z,22.36
2017-02-11T03:12:07.716Z,22.38
2017-02-11T03:13:07.262Z,22.43
2017-02-11T03:14:07.202Z,22.39
2017-02-11T03:15:22.022Z,22.45
2017-02-11T03:16:07.462Z,22.36
2017-02-11T03:17:07.400Z,22.45
2017-02-11T03:18:07.333Z,22.36
2017-02-11T03:19:07.277Z,22.43
2017-02-11T03:20:07.208Z,22.39
2017-02-11T03:21:07.146Z,22.39
2017-02-11T03:22:07.080Z,22.33
2017-02-11T03:23:07.023Z,22.41
2017-02-11T03:24:06.956Z,22.43
2017-02-11T03:25:06.891Z,22.44
2017-02-11T03:26:06.829Z,22.43
2017-02-11T03:27:06.769Z,22.44
2017-02-11T03:28:06.710Z,22.44
2017-02-11T03:29:06.637Z,22.43
2017-02-11T03:30:06.631Z,22.43
2017-02-11T03:31:06.524Z,22.41
2017-02-11T03:32:06.446Z,22.41
2017-02-11T03:33:06.384Z,22.45
2017-02-11T03:34:06.321Z,22.47
2017-02-11T03:35:06.258Z,22.39
2017-02-11T03:36:06.195Z,22.44
2017-02-11T03:37:06.137Z,22.44
2017-02-11T03:38:06.066Z,22.45
2017-02-11T03:39:06.002Z,22.44
2017-02-11T03:40:05.939Z,22.45
2017-02-11T03:41:05.875Z,22.44
2017-02-11T03:42:05.810Z,22.39
2017-02-11T03:43:05.752Z,22.44
2017-02-11T03:44:05.695Z,22.43
2017-02-11T03:45:05.627Z,22.41
2017-02-11T03:46:05.557Z,22.43
2017-02-11T03:47:05.495Z,22.44
2017-02-11T03:48:05.428Z,22.47
2017-02-11T03:49:05.369Z,22.45
2017-02-11T03:50:05.302Z,22.39
2017-02-11T03:51:05.239Z,22.39
2017-02-11T03:52:05.175Z,22.47
2017-02-11T03:53:05.119Z,22.36
2017-02-11T03:54:05.052Z,22.45
2017-02-11T03:55:04.989Z,22.44
2017-02-11T03:56:04.920Z,22.36
2017-02-11T03:57:04.863Z,22.39
2017-02-11T03:58:04.800Z,22.41
2017-02-11T03:59:04.730Z,22.39
2017-02-11T04:00:04.669Z,22.38
2017-02-11T04:01:04.605Z,22.43
2017-02-11T04:02:04.542Z,22.39
2017-02-11T04:03:04.476Z,22.39
2017-02-11T04:04:04.022Z,22.41
2017-02-11T04:05:04.350Z,22.45
2017-02-11T04:06:04.288Z,22.38
2017-02-11T04:07:04.223Z,22.41
2017-02-11T04:08:04.160Z,22.41
2017-02-11T04:09:04.094Z,22.44
2017-02-11T04:10:04.035Z,22.44
2017-02-11T04:11:03.968Z,22.39
2017-02-11T04:12:03.950Z,22.43
2017-02-11T04:13:03.840Z,22.41
2017-02-11T04:14:03.785Z,22.45
2017-02-11T04:15:03.712Z,22.39
2017-02-11T04:16:03.650Z,22.43
2017-02-11T04:17:03.587Z,22.41
2017-02-11T04:18:03.527Z,22.41
2017-02-11T04:19:03.460Z,22.45
2017-02-11T04:20:03.396Z,22.43
2017-02-11T04:21:03.339Z,22.36
2017-02-11T04:22:03.272Z,22.38
2017-02-11T04:23:02.826Z,22.45
2017-02-11T04:24:03.145Z,22.47
2017-02-11T04:25:03.075Z,22.44
2017-02-11T04:26:03.014Z,22.43
2017-02-11T04:27:02.957Z,22.44
2017-02-11T04:28:02.890Z,22.47
2017-02-11T04:29:02.826Z,22.39
2017-02-11T04:30:02.760Z,22.51
2017-02-11T04:31:02.697Z,22.38
2017-02-11T04:32:02.642Z,22.41
2017-02-11T04:33:02.570Z,22.47
2017-02-11T04:34:02.512Z,22.48
2017-02-11T04:35:02.446Z,22.33
2017-02-11T04:36:02.378Z,22.44
2017-02-11T04:37:02.324Z,22.44
2017-02-11T04:38:02.281Z,22.43
2017-02-11T04:39:02.195Z,22.39
2017-02-11T04:40:02.123Z,22.43
2017-02-11T04:41:02.063Z,22.45
2017-02-11T04:42:02.002Z,22.44
2017-02-11T04:43:01.935Z,22.41
2017-02-11T04:44:01.877Z,22.48
2017-02-11T04:45:01.807Z,22.51
2017-02-11T04:46:01.744Z,22.51
2017-02-11T04:47:01.292Z,22.44
2017-02-11T04:48:01.617Z,22.44
2017-02-11T04:49:01.560Z,22.45
2017-02-11T04:50:01.491Z,22.43
2017-02-11T04:51:01.426Z,22.45
2017-02-11T04:52:01.361Z,22.44
2017-02-11T04:53:01.302Z,22.53
2017-02-11T04:54:01.235Z,22.41
2017-02-11T04:55:01.177Z,22.44
2017-02-11T04:56:01.107Z,22.41
2017-02-11T04:57:01.093Z,22.5
2017-02-11T04:58:00.981Z,22.41
2017-02-11T04:59:00.921Z,22.43
2017-02-11T05:00:00.853Z,22.39
2017-02-11T05:01:00.793Z,22.43
2017-02-11T05:02:00.727Z,22.44
2017-02-11T05:03:00.663Z,22.45
2017-02-11T05:04:00.600Z,22.39
2017-02-11T05:05:00.536Z,22.41
2017-02-11T05:06:00.471Z,22.38
2017-02-11T05:07:00.416Z,22.36
2017-02-11T05:08:00.342Z,22.33
2017-02-11T05:09:00.292Z,22.39
2017-02-11T05:09:59.829Z,22.36
2017-02-11T05:11:00.157Z,22.38
2017-02-11T05:12:00.095Z,22.35
2017-02-11T05:13:00.029Z,22.36
2017-02-11T05:13:59.962Z,22.39
2017-02-11T05:14:59.904Z,22.36
2017-02-11T05:15:59.837Z,22.36
2017-02-11T05:16:59.771Z,22.39
2017-02-11T05:17:59.715Z,22.41
2017-02-11T05:18:59.645Z,22.38
2017-02-11T05:19:59.588Z,22.39
2017-02-11T05:20:59.522Z,22.36
2017-02-11T05:21:59.455Z,22.35
2017-02-11T05:22:59.394Z,22.43
2017-02-11T05:23:59.326Z,22.43
2017-02-11T05:24:59.267Z,22.41
2017-02-11T05:25:59.204Z,22.22
2017-02-11T05:26:59.137Z,22.38
2017-02-11T05:27:59.070Z,22.23
2017-02-11T05:28:59.008Z,22.23
2017-02-11T05:29:58.947Z,22.35
2017-02-11T05:30:58.888Z,22.35
2017-02-11T05:31:58.820Z,22.33
2017-02-11T05:32:58.756Z,22.36
2017-02-11T05:33:58.692Z,22.36
2017-02-11T05:34:58.635Z,22.33
2017-02-11T05:35:58.563Z,22.33
2017-02-11T05:36:58.502Z,22.32
2017-02-11T05:37:58.047Z,22.33
2017-02-11T05:38:58.370Z,22.28
2017-02-11T05:39:58.311Z,22.26
2017-02-11T05:40:58.250Z,22.25
2017-02-11T05:41:58.182Z,22.25
2017-02-11T05:42:57.737Z,22.25
2017-02-11T05:43:58.056Z,22.25
2017-02-11T05:44:57.990Z,22.22
2017-02-11T05:45:57.930Z,22.29
2017-02-11T05:46:57.869Z,22.26
2017-02-11T05:47:57.803Z,22.28
2017-02-11T05:48:57.742Z,22.29
2017-02-11T05:49:57.678Z,22.33
2017-02-11T05:50:57.616Z,22.25
2017-02-11T05:51:57.546Z,22.26
2017-02-11T05:52:57.482Z,22.36
2017-02-11T05:53:57.422Z,22.23
2017-02-11T05:54:57.359Z,22.28
2017-02-11T05:55:57.291Z,22.32
2017-02-11T05:56:57.227Z,22.33
2017-02-11T05:57:57.207Z,22.32
2017-02-11T05:58:57.100Z,22.33
2017-02-11T05:59:57.038Z,22.26
2017-02-11T06:00:56.974Z,22.26
2017-02-11T06:01:56.916Z,22.22
2017-02-11T06:02:56.848Z,22.26
2017-02-11T06:03:56.783Z,22.2
2017-02-11T06:04:56.719Z,22.3
2017-02-11T06:05:56.958Z,22.29
2017-02-11T06:06:56.590Z,22.28
2017-02-11T06:07:56.533Z,22.18
2017-02-11T06:08:56.497Z,22.15
2017-02-11T06:09:56.400Z,22.33
2017-02-11T06:10:56.333Z,22.28
2017-02-11T06:11:56.275Z,22.2
2017-02-11T06:12:56.210Z,22.2
2017-02-11T06:13:56.145Z,22.22
2017-02-11T06:14:56.082Z,22.18
2017-02-11T06:15:56.020Z,22.23
2017-02-11T06:16:55.954Z,22.26
2017-02-11T06:17:55.895Z,22.22
2017-02-11T06:18:55.825Z,22.15
2017-02-11T06:19:55.764Z,22.2
2017-02-11T06:20:55.703Z,22.22
2017-02-11T06:21:55.634Z,22.2
2017-02-11T06:22:55.579Z,22.18
2017-02-11T06:23:55.507Z,22.15
2017-02-11T06:24:55.450Z,22.18
2017-02-11T06:25:55.378Z,22.14
2017-02-11T06:26:55.314Z,22.17
2017-02-11T06:27:55.257Z,22.2
2017-02-11T06:28:55.193Z,22.17
2017-02-11T06:29:55.123Z,22.14
2017-02-11T06:30:55.072Z,22.14
2017-02-11T06:31:55.006Z,22.18
2017-02-11T06:32:54.932Z,22.22
2017-02-11T06:33:54.869Z,22.17
2017-02-11T06:34:54.806Z,22.14
2017-02-11T06:35:54.742Z,22.18
2017-02-11T06:36:54.681Z,22.17
2017-02-11T06:37:54.615Z,22.14
2017-02-11T06:38:54.552Z,22.17
2017-02-11T06:39:54.491Z,22.22
2017-02-11T06:40:54.426Z,22.1
2017-02-11T06:41:54.359Z,22.2
2017-02-11T06:42:54.297Z,22.17
2017-02-11T06:43:54.240Z,22.14
2017-02-11T06:44:54.167Z,22.14
2017-02-11T06:45:54.102Z,22.15
2017-02-11T06:46:54.039Z,22.26
2017-02-11T06:47:53.977Z,22.17
2017-02-11T06:48:53.912Z,22.17
2017-02-11T06:49:53.846Z,22.11
2017-02-11T06:50:53.786Z,22.22
2017-02-11T06:51:53.727Z,22.22
2017-02-11T06:52:53.657Z,22.14
2017-02-11T06:53:53.596Z,22.14
2017-02-11T06:54:53.529Z,22.17
2017-02-11T06:55:53.464Z,22.06
2017-02-11T06:56:53.015Z,22.04
2017-02-11T06:57:53.336Z,22.07
2017-02-11T06:58:53.275Z,22.13
2017-02-11T06:59:53.212Z,22.13
2017-02-11T07:00:53.147Z,22.1
2017-02-11T07:01:53.083Z,22.18
2017-02-11T07:02:53.020Z,22.08
2017-02-11T07:03:52.959Z,22.11
2017-02-11T07:04:52.503Z,22.14
2017-02-11T07:05:52.439Z,22.14
2017-02-11T07:06:52.762Z,22.13
2017-02-11T07:07:52.699Z,22.08
2017-02-11T07:08:52.636Z,22.11
2017-02-11T07:09:52.572Z,22.11
2017-02-11T07:10:52.609Z,22.11
2017-02-11T07:11:52.446Z,22.04
2017-02-11T07:12:52.378Z,22.02
2017-02-11T07:13:52.316Z,22.06
2017-02-11T07:14:52.268Z,22.08
2017-02-11T07:15:52.188Z,22.04
2017-02-11T07:16:52.126Z,22.1
2017-02-11T07:17:52.060Z,22.08
2017-02-11T07:18:51.997Z,22.04
2017-02-11T07:19:51.937Z,22.08
2017-02-11T07:20:51.873Z,22.1
2017-02-11T07:21:51.812Z,22.1
2017-02-11T07:22:51.746Z,22.1
2017-02-11T07:23:51.678Z,22.08
2017-02-11T07:24:51.616Z,22.13
2017-02-11T07:25:51.583Z,22.14
2017-02-11T07:26:51.486Z,22.02
2017-02-11T07:27:51.421Z,22.11
2017-02-11T07:28:51.359Z,22.06
2017-02-11T07:29:51.296Z,22.1
2017-02-11T07:30:51.238Z,22.1
2017-02-11T07:31:51.168Z,22.06
2017-02-11T07:32:51.104Z,22.11
2017-02-11T07:33:51.039Z,22.08
2017-02-11T07:34:50.979Z,22.13
2017-02-11T07:35:50.913Z,22.07
2017-02-11T07:36:50.457Z,22.14
2017-02-11T07:37:50.785Z,22.08
2017-02-11T07:38:50.719Z,22.11
2017-02-11T07:39:50.661Z,22.07
2017-02-11T07:40:50.594Z,22
2017-02-11T07:41:50.529Z,22.07
2017-02-11T07:42:50.466Z,22.08
2017-02-11T07:43:50.401Z,22.1
2017-02-11T07:44:50.336Z,22.1
2017-02-11T07:45:50.288Z,22.13
2017-02-11T07:46:50.214Z,22.04
2017-02-11T07:47:50.147Z,22.06
2017-02-11T07:48:50.081Z,22.11
2017-02-11T07:49:50.022Z,21.99
2017-02-11T07:50:49.952Z,22.07
2017-02-11T07:51:49.891Z,21.98
2017-02-11T07:52:49.827Z,22.08
2017-02-11T07:53:49.760Z,22.07
2017-02-11T07:54:49.722Z,22.04
2017-02-11T07:55:49.635Z,22.07
2017-02-11T07:56:49.571Z,22.07
2017-02-11T07:57:49.507Z,22.1
2017-02-11T07:58:49.443Z,22.07
2017-02-11T07:59:49.395Z,22
2017-02-11T08:00:49.318Z,22.06
2017-02-11T08:01:49.250Z,21.99
2017-02-11T08:02:49.186Z,21.98
2017-02-11T08:03:49.121Z,22.1
2017-02-11T08:04:49.060Z,22.04
2017-02-11T08:05:49.297Z,21.99
2017-02-11T08:06:48.940Z,22.1
2017-02-11T08:07:48.867Z,21.99
2017-02-11T08:08:48.804Z,21.95
2017-02-11T08:09:48.740Z,22.04
2017-02-11T08:10:49.028Z,22.06
2017-02-11T08:11:48.614Z,22.04
2017-02-11T08:12:48.548Z,21.98
2017-02-11T08:13:48.487Z,21.98
2017-02-11T08:14:48.030Z,22.02
2017-02-11T08:15:48.355Z,22.04
2017-02-11T08:16:48.292Z,22.04
2017-02-11T08:17:48.230Z,22.06
2017-02-11T08:18:48.165Z,21.96
2017-02-11T08:19:48.099Z,22.07
2017-02-11T08:20:48.360Z,21.96
2017-02-11T08:21:47.972Z,22.1
2017-02-11T08:22:47.910Z,22.04
2017-02-11T08:23:47.846Z,22
2017-02-11T08:24:47.779Z,22
2017-02-11T08:25:47.714Z,22.1
2017-02-11T08:26:47.658Z,22.07
2017-02-11T08:27:47.596Z,22.02
2017-02-11T08:28:47.524Z,21.99
2017-02-11T08:29:47.078Z,21.98
2017-02-11T08:30:47.397Z,22.04
2017-02-11T08:31:47.333Z,21.96
2017-02-11T08:32:47.270Z,22.06
2017-02-11T08:33:47.217Z,21.96
2017-02-11T08:34:47.140Z,21.99
2017-02-11T08:35:47.075Z,22.04
2017-02-11T08:36:47.011Z,22.06
2017-02-11T08:37:46.950Z,22.04
2017-02-11T08:38:46.886Z,22.06
2017-02-11T08:39:46.822Z,22.02
2017-02-11T08:40:46.806Z,22
2017-02-11T08:41:46.691Z,22.02
2017-02-11T08:42:46.630Z,21.99
2017-02-11T08:43:46.568Z,21.99
2017-02-11T08:44:46.501Z,22.1
2017-02-11T08:45:46.437Z,22.07
2017-02-11T08:46:46.375Z,22
2017-02-11T08:47:46.309Z,22.07
2017-02-11T08:48:46.244Z,22.06
2017-02-11T08:49:46.184Z,22.06
2017-02-11T08:50:45.727Z,21.96
2017-02-11T08:51:46.053Z,22.02
2017-02-11T08:52:45.989Z,22
2017-02-11T08:53:45.540Z,22.04
2017-02-11T08:54:45.861Z,22
2017-02-11T08:55:45.798Z,21.95
2017-02-11T08:56:45.756Z,21.98
2017-02-11T08:57:45.287Z,22.02
2017-02-11T08:58:45.605Z,22.02
2017-02-11T08:59:45.543Z,21.93
2017-02-11T09:00:45.485Z,21.99
2017-02-11T09:01:45.415Z,21.99
2017-02-11T09:02:45.349Z,22
2017-02-11T09:03:45.290Z,22.07
2017-02-11T09:04:45.224Z,22.08
2017-02-11T09:05:45.159Z,21.99
2017-02-11T09:06:45.096Z,21.99
2017-02-11T09:07:45.037Z,22
2017-02-11T09:08:44.968Z,22.08
2017-02-11T09:09:44.516Z,22.06
2017-02-11T09:10:44.841Z,22.04
2017-02-11T09:11:44.794Z,22
2017-02-11T09:12:44.712Z,22.02
2017-02-11T09:13:44.646Z,22.1
2017-02-11T09:14:44.587Z,22.08
2017-02-11T09:15:44.138Z,22.08
2017-02-11T09:16:44.488Z,22.08
2017-02-11T09:17:44.397Z,22.08
2017-02-11T09:18:44.325Z,22.08
2017-02-11T09:19:44.300Z,22.1
2017-02-11T09:20:44.198Z,22.08
2017-02-11T09:21:44.142Z,22.11
2017-02-11T09:22:44.084Z,22.08
2017-02-11T09:23:44.009Z,22.1
2017-02-11T09:24:43.949Z,21.93
2017-02-11T09:25:43.878Z,22.07
2017-02-11T09:26:43.818Z,22.13
2017-02-11T09:27:44.952Z,22.11
2017-02-11T09:28:43.687Z,22.08
2017-02-11T09:29:43.623Z,22.06
2017-02-11T09:30:43.561Z,22.1
2017-02-11T09:31:43.498Z,22.15
2017-02-11T09:32:43.432Z,22.08
2017-02-11T09:33:43.368Z,22.1
2017-02-11T09:34:43.316Z,22.06
2017-02-11T09:35:43.241Z,22.07
2017-02-11T09:36:43.178Z,22.04
2017-02-11T09:37:43.115Z,22.11
2017-02-11T09:38:43.060Z,22.02
2017-02-11T09:39:42.994Z,22.14
2017-02-11T09:40:42.924Z,22.13
2017-02-11T09:41:42.858Z,22.06
2017-02-11T09:42:42.796Z,22.1
2017-02-11T09:43:42.732Z,22.11
2017-02-11T09:44:42.664Z,22.1
2017-02-11T09:45:42.606Z,22.04
2017-02-11T09:46:42.540Z,22.02
2017-02-11T09:47:42.495Z,22.06
2017-02-11T09:48:42.407Z,22.14
2017-02-11T09:49:42.344Z,22.1
2017-02-11T09:50:42.193Z,22.14
2017-02-11T09:51:42.221Z,22.08
2017-02-11T09:52:42.160Z,22.18
2017-02-11T09:53:42.090Z,22.11
2017-02-11T09:54:42.026Z,22.06
2017-02-11T09:55:41.965Z,22.02
2017-02-11T09:56:41.896Z,22.15
2017-02-11T09:57:41.837Z,22.07
2017-02-11T09:58:41.774Z,22.14
2017-02-11T09:59:54.295Z,22.07
2017-02-11T10:00:41.648Z,22.14
2017-02-11T10:01:41.579Z,22.11
2017-02-11T10:02:41.517Z,22.1
2017-02-11T10:03:41.462Z,22.14
2017-02-11T10:04:41.389Z,22.18
2017-02-11T10:05:41.327Z,22.11
2017-02-11T10:06:41.276Z,22.08
2017-02-11T10:07:41.197Z,22.15
2017-02-11T10:08:41.179Z,22.2
2017-02-11T10:09:41.070Z,22.1
2017-02-11T10:10:41.005Z,22.1
2017-02-11T10:11:40.943Z,22.08
2017-02-11T10:12:40.887Z,22.15
2017-02-11T10:13:40.809Z,22.17
2017-02-11T10:14:40.749Z,22.2
2017-02-11T10:15:40.682Z,22.22
2017-02-11T10:16:40.619Z,22.14
2017-02-11T10:17:40.567Z,22.14
2017-02-11T10:18:40.514Z,22.22
2017-02-11T10:19:40.461Z,22.14
2017-02-11T10:20:40.613Z,22.13
2017-02-11T10:21:40.302Z,22.17
2017-02-11T10:22:40.237Z,22.14
2017-02-11T10:23:40.173Z,22.18
2017-02-11T10:24:40.132Z,22.17
2017-02-11T10:25:40.048Z,22.13
2017-02-11T10:26:39.986Z,22.14
2017-02-11T10:27:39.918Z,22.17
2017-02-11T10:28:39.858Z,22.2
2017-02-11T10:29:39.789Z,22.18
2017-02-11T10:30:39.731Z,22.14
2017-02-11T10:31:39.664Z,22.14
2017-02-11T10:32:39.603Z,22.18
2017-02-11T10:33:39.537Z,22.17
2017-02-11T10:34:39.473Z,22.17
2017-02-11T10:35:39.410Z,22.17
2017-02-11T10:36:38.959Z,22.17
2017-02-11T10:37:39.283Z,22.11
2017-02-11T10:38:39.219Z,22.17
2017-02-11T10:39:39.163Z,22.15
2017-02-11T10:40:39.090Z,22.18
2017-02-11T10:41:39.028Z,22.14
2017-02-11T10:42:38.962Z,22.15
2017-02-11T10:43:38.509Z,22.17
2017-02-11T10:44:38.834Z,22.2
2017-02-11T10:45:38.769Z,22.15
2017-02-11T10:46:38.711Z,22.14
2017-02-11T10:47:38.642Z,22.15
2017-02-11T10:48:38.589Z,22.2
2017-02-11T10:49:38.516Z,22.18
2017-02-11T10:50:38.452Z,22.25
2017-02-11T10:51:38.386Z,22.15
2017-02-11T10:52:38.323Z,22.2
2017-02-11T10:53:38.260Z,22.17
2017-02-11T10:54:38.196Z,22.2
2017-02-11T10:55:38.136Z,22.26
2017-02-11T10:56:38.067Z,22.15
2017-02-11T10:57:38.015Z,22.2
2017-02-11T10:58:37.941Z,22.18
2017-02-11T10:59:37.878Z,22.18
2017-02-11T11:00:37.817Z,22.1
2017-02-11T11:01:37.747Z,22.2
2017-02-11T11:02:37.691Z,22.17
2017-02-11T11:03:37.619Z,22.22
2017-02-11T11:04:37.555Z,22.18
2017-02-11T11:05:37.492Z,22.2
2017-02-11T11:06:37.430Z,22.17
2017-02-11T11:07:37.364Z,22.15
2017-02-11T11:08:37.301Z,22.17
2017-02-11T11:09:37.240Z,22.17
2017-02-11T11:10:37.176Z,22.13
2017-02-11T11:11:37.116Z,22.17
2017-02-11T11:12:37.048Z,22.23
2017-02-11T11:13:36.980Z,22.26
2017-02-11T11:14:36.929Z,22.15
2017-02-11T11:15:36.464Z,22.17
2017-02-11T11:16:36.792Z,22.22
2017-02-11T11:17:36.727Z,22.26
2017-02-11T11:18:36.666Z,22.2
2017-02-11T11:19:36.603Z,22.25
2017-02-11T11:20:36.538Z,22.26
2017-02-11T11:21:36.476Z,22.17
2017-02-11T11:22:36.410Z,22.25
2017-02-11T11:23:36.343Z,22.23
2017-02-11T11:24:36.281Z,22.13
2017-02-11T11:25:36.216Z,22.13
2017-02-11T11:26:36.356Z,22.25
2017-02-11T11:27:36.089Z,22.29
2017-02-11T11:28:36.027Z,22.28
2017-02-11T11:29:35.960Z,22.13
2017-02-11T11:30:35.897Z,22.15
2017-02-11T11:31:35.839Z,22.18
2017-02-11T11:32:34.990Z,22.14
2017-02-11T11:33:35.705Z,22.2
2017-02-11T11:34:35.643Z,22.17
2017-02-11T11:35:35.577Z,22.26
2017-02-11T11:36:35.717Z,22.14
2017-02-11T11:37:34.670Z,22.29
2017-02-11T11:38:35.388Z,22.17
2017-02-11T11:39:35.322Z,22.23
2017-02-11T11:40:35.260Z,22.3
2017-02-11T11:41:35.197Z,22.2
2017-02-11T11:42:35.133Z,22.2
2017-02-11T11:43:35.076Z,22.2
2017-02-11T11:44:35.008Z,22.28
2017-02-11T11:45:34.898Z,22.26
2017-02-11T11:46:34.877Z,22.33
2017-02-11T11:47:34.815Z,22.23
2017-02-11T11:48:34.750Z,22.26
2017-02-11T11:49:34.685Z,22.26
2017-02-11T11:50:34.619Z,22.28
2017-02-11T11:51:34.582Z,22.26
2017-02-11T11:52:34.497Z,22.29
2017-02-11T11:53:34.430Z,22.26
2017-02-11T11:54:34.377Z,22.29
2017-02-11T11:55:34.304Z,22.23
2017-02-11T11:56:34.239Z,22.25
2017-02-11T11:57:34.176Z,22.26
2017-02-11T11:58:34.113Z,22.26
2017-02-11T11:59:34.048Z,22.26
2017-02-11T12:00:33.985Z,22.26
2017-02-11T12:01:33.930Z,22.25
2017-02-11T12:02:33.857Z,22.29
2017-02-11T12:03:33.796Z,22.25
2017-02-11T12:04:33.755Z,22.25
2017-02-11T12:05:33.670Z,22.35
2017-02-11T12:06:33.629Z,22.26
2017-02-11T12:07:33.547Z,22.26
2017-02-11T12:08:33.086Z,22.23
2017-02-11T12:09:33.410Z,22.32
2017-02-11T12:10:33.348Z,22.2
2017-02-11T12:11:33.282Z,22.3
2017-02-11T12:12:33.224Z,22.25
2017-02-11T12:13:33.157Z,22.29
2017-02-11T12:14:33.092Z,22.25
2017-02-11T12:15:32.636Z,22.23
2017-02-11T12:16:32.579Z,22.28
2017-02-11T12:17:32.905Z,22.25
2017-02-11T12:18:32.843Z,22.25
2017-02-11T12:19:32.773Z,22.25
2017-02-11T12:20:32.615Z,22.23
2017-02-11T12:21:32.651Z,22.28
2017-02-11T12:22:32.193Z,22.29
2017-02-11T12:23:32.519Z,22.25
2017-02-11T12:24:32.454Z,22.35
2017-02-11T12:25:32.395Z,22.3
2017-02-11T12:26:32.329Z,22.25
2017-02-11T12:27:32.269Z,22.25
2017-02-11T12:28:32.200Z,22.29
2017-02-11T12:29:32.140Z,22.22
2017-02-11T12:30:32.072Z,22.33
2017-02-11T12:31:32.007Z,22.26
2017-02-11T12:32:31.947Z,22.26
2017-02-11T12:33:31.880Z,22.33
2017-02-11T12:34:31.819Z,22.22
2017-02-11T12:35:31.754Z,22.26
2017-02-11T12:36:31.691Z,22.26
2017-02-11T12:37:31.627Z,22.25
2017-02-11T12:38:31.564Z,22.22
2017-02-11T12:39:30.715Z,22.26
2017-02-11T12:40:31.042Z,22.35
2017-02-11T12:41:31.384Z,22.33
2017-02-11T12:42:30.916Z,22.33
2017-02-11T12:43:31.247Z,22.23
2017-02-11T12:44:31.179Z,22.26
2017-02-11T12:45:31.118Z,22.3
2017-02-11T12:46:30.666Z,22.22
2017-02-11T12:47:30.988Z,22.32
2017-02-11T12:48:30.534Z,22.28
2017-02-11T12:49:30.860Z,22.23
2017-02-11T12:50:30.797Z,22.33
2017-02-11T12:51:30.736Z,22.28
2017-02-11T12:52:30.676Z,22.25
2017-02-11T12:53:30.608Z,22.3
2017-02-11T12:54:30.547Z,22.32
2017-02-11T12:55:30.479Z,22.25